createdAt,value
2018-12-27T00:00:22.552Z,102316.70
2018-12-27T00:02:54.906Z,102314.95
2018-12-27T00:05:21.190Z,102317.12
2018-12-27T00:07:49.619Z,102312.77
2018-12-27T00:10:18.088Z,102317.95
2018-12-27T00:12:46.528Z,102307.17
2018-12-27T00:15:14.993Z,102308.88
2018-12-27T00:17:43.428Z,102304.50
2018-12-27T00:20:11.885Z,102304.09
2018-12-27T00:22:40.317Z,102304.09
2018-12-27T00:25:08.785Z,102298.86
2018-12-27T00:27:37.217Z,102304.09
2018-12-27T00:30:05.926Z,102298.91
2018-12-27T00:32:34.612Z,102301.91
2018-12-27T00:35:03.329Z,102303.20
2018-12-27T00:37:32.021Z,102300.20
2018-12-27T00:40:00.713Z,102308.47
2018-12-27T00:42:29.434Z,102306.67
2018-12-27T00:44:58.124Z,102301.11
2018-12-27T00:47:26.839Z,102300.62
2018-12-27T00:49:55.526Z,102303.20
2018-12-27T00:52:24.249Z,102298.03
2018-12-27T00:54:52.945Z,102297.14
2018-12-27T00:57:21.654Z,102299.73
2018-12-27T00:59:50.345Z,102298.44
2018-12-27T01:02:19.063Z,102292.80
2018-12-27T01:04:47.789Z,102295.77
2018-12-27T01:07:16.457Z,102294.56
2018-12-27T01:09:45.153Z,102293.13
2018-12-27T01:12:13.869Z,102291.76
2018-12-27T01:14:42.554Z,102293.88
2018-12-27T01:17:11.268Z,102290.00
2018-12-27T01:19:39.955Z,102285.16
2018-12-27T01:22:08.673Z,102289.87
2018-12-27T01:24:37.362Z,102285.98
2018-12-27T01:27:06.078Z,102291.08
2018-12-27T01:29:34.774Z,102294.97
2018-12-27T01:32:03.501Z,102291.42
2018-12-27T01:34:32.199Z,102295.25
2018-12-27T01:37:00.942Z,102288.70
2018-12-27T01:39:29.637Z,102281.27
2018-12-27T01:41:58.367Z,102289.36
2018-12-27T01:44:27.055Z,102287.94
2018-12-27T01:46:55.788Z,102281.34
2018-12-27T01:49:24.495Z,102288.55
2018-12-27T01:51:53.194Z,102288.80
2018-12-27T01:54:21.918Z,102288.34
2018-12-27T01:56:50.618Z,102282.20
2018-12-27T01:59:19.337Z,102282.53
2018-12-27T02:01:48.034Z,102281.61
2018-12-27T02:04:16.758Z,102277.64
2018-12-27T02:06:45.455Z,102282.73
2018-12-27T02:09:14.181Z,102276.63
2018-12-27T02:11:42.879Z,102277.51
2018-12-27T02:14:11.601Z,102285.73
2018-12-27T02:16:40.301Z,102281.39
2018-12-27T02:19:09.025Z,102282.59
2018-12-27T02:21:37.729Z,102273.83
2018-12-27T02:24:06.455Z,102281.17
2018-12-27T02:26:35.160Z,102269.86
2018-12-27T02:29:03.898Z,102275.36
2018-12-27T02:31:32.607Z,102268.76
2018-12-27T02:34:01.330Z,102271.27
2018-12-27T02:36:30.092Z,102269.42
2018-12-27T02:38:58.822Z,102262.95
2018-12-27T02:41:27.522Z,102260.78
2018-12-27T02:43:56.253Z,102266.78
2018-12-27T02:46:24.959Z,102267.99
2018-12-27T02:48:53.687Z,102263.15
2018-12-27T02:51:22.392Z,102259.22
2018-12-27T02:53:51.120Z,102252.61
2018-12-27T02:56:19.822Z,102252.11
2018-12-27T02:58:48.553Z,102248.98
2018-12-27T03:01:17.256Z,102246.67
2018-12-27T03:03:45.962Z,102244.46
2018-12-27T03:06:14.683Z,102237.06
2018-12-27T03:08:43.381Z,102233.98
2018-12-27T03:11:12.108Z,102227.09
2018-12-27T03:13:40.817Z,102216.62
2018-12-27T03:16:09.544Z,102219.20
2018-12-27T03:18:38.248Z,102216.62
2018-12-27T03:21:06.976Z,102215.73
2018-12-27T03:23:35.686Z,102211.39
2018-12-27T03:26:04.417Z,102215.66
2018-12-27T03:28:33.123Z,102214.36
2018-12-27T03:31:01.855Z,102212.69
2018-12-27T03:33:30.556Z,102209.69
2018-12-27T03:35:59.287Z,102201.84
2018-12-27T03:38:27.989Z,102195.66
2018-12-27T03:40:56.717Z,102200.69
2018-12-27T03:43:25.422Z,102198.44
2018-12-27T03:45:54.163Z,102197.89
2018-12-27T03:48:22.876Z,102203.39
2018-12-27T03:50:51.604Z,102202.97
2018-12-27T03:53:20.301Z,102201.59
2018-12-27T03:55:49.024Z,102196.79
2018-12-27T03:58:17.725Z,102192.36
2018-12-27T04:00:46.459Z,102194.03
2018-12-27T04:03:15.168Z,102196.95
2018-12-27T04:05:43.890Z,102191.69
2018-12-27T04:08:12.589Z,102190.73
2018-12-27T04:10:41.315Z,102189.44
2018-12-27T04:13:10.018Z,102189.84
2018-12-27T04:15:38.497Z,102183.30
2018-12-27T04:18:06.943Z,102186.63
2018-12-27T04:20:35.388Z,102188.74
2018-12-27T04:23:03.858Z,102185.70
2018-12-27T04:25:33.384Z,102188.74
2018-12-27T04:28:01.864Z,102191.33
2018-12-27T04:30:30.307Z,102184.45
2018-12-27T04:32:59.050Z,102180.98
2018-12-27T04:35:27.572Z,102178.81
2018-12-27T04:37:56.050Z,102181.81
2018-12-27T04:40:24.501Z,102180.85
2018-12-27T04:42:53.047Z,102179.06
2018-12-27T04:45:21.501Z,102184.09
2018-12-27T04:47:50.017Z,102186.21
2018-12-27T04:50:18.465Z,102184.42
2018-12-27T04:52:46.935Z,102185.16
2018-12-27T04:55:15.387Z,102185.11
2018-12-27T04:57:43.859Z,102188.90
2018-12-27T05:00:12.307Z,102193.10
2018-12-27T05:02:40.859Z,102191.34
2018-12-27T05:05:09.311Z,102192.55
2018-12-27T05:07:37.838Z,102191.03
2018-12-27T05:10:06.412Z,102195.08
2018-12-27T05:12:34.954Z,102198.05
2018-12-27T05:15:03.769Z,102201.04
2018-12-27T05:17:32.243Z,102197.99
2018-12-27T05:20:00.690Z,102198.41
2018-12-27T05:22:29.260Z,102202.28
2018-12-27T05:24:57.706Z,102204.36
2018-12-27T05:27:26.161Z,102203.48
2018-12-27T05:29:54.641Z,102203.40
2018-12-27T05:32:23.120Z,102201.22
2018-12-27T05:34:51.596Z,102205.42
2018-12-27T05:37:20.049Z,102210.59
2018-12-27T05:39:48.520Z,102205.75
2018-12-27T05:42:17.161Z,102204.31
2018-12-27T05:44:45.638Z,102202.47
2018-12-27T05:47:14.084Z,102212.75
2018-12-27T05:49:42.592Z,102206.20
2018-12-27T05:52:11.121Z,102201.45
2018-12-27T05:54:39.591Z,102209.61
2018-12-27T05:57:08.044Z,102209.11
2018-12-27T05:59:36.567Z,102202.51
2018-12-27T06:02:04.971Z,102201.22
2018-12-27T06:04:34.130Z,102198.63
2018-12-27T06:07:02.669Z,102201.62
2018-12-27T06:09:31.147Z,102189.03
2018-12-27T06:11:59.605Z,102188.56
2018-12-27T06:14:28.084Z,102187.19
2018-12-27T06:16:56.537Z,102191.06
2018-12-27T06:19:25.086Z,102185.42
2018-12-27T06:21:53.535Z,102183.63
2018-12-27T06:24:22.014Z,102182.67
2018-12-27T06:26:50.469Z,102185.20
2018-12-27T06:29:18.944Z,102192.03
2018-12-27T06:31:47.389Z,102191.56
2018-12-27T06:34:15.839Z,102184.64
2018-12-27T06:36:44.346Z,102188.52
2018-12-27T06:39:12.801Z,102180.67
2018-12-27T06:41:41.280Z,102191.00
2018-12-27T06:44:09.734Z,102181.82
2018-12-27T06:46:38.207Z,102184.81
2018-12-27T06:49:06.664Z,102176.89
2018-12-27T06:51:35.133Z,102187.16
2018-12-27T06:54:03.582Z,102185.37
2018-12-27T06:56:32.051Z,102184.02
2018-12-27T06:59:00.582Z,102184.44
2018-12-27T07:01:29.057Z,102183.20
2018-12-27T07:03:57.520Z,102184.02
2018-12-27T07:06:25.984Z,102182.73
2018-12-27T07:08:54.470Z,102178.86
2018-12-27T07:11:22.915Z,102184.02
2018-12-27T07:13:51.362Z,102181.03
2018-12-27T07:16:19.840Z,102186.61
2018-12-27T07:18:48.288Z,102177.98
2018-12-27T07:21:16.769Z,102184.34
2018-12-27T07:23:45.244Z,102188.31
2018-12-27T07:26:13.716Z,102185.22
2018-12-27T07:28:42.168Z,102186.05
2018-12-27T07:31:10.649Z,102193.80
2018-12-27T07:33:39.102Z,102188.53
2018-12-27T07:36:07.586Z,102194.94
2018-12-27T07:38:36.037Z,102191.80
2018-12-27T07:41:04.517Z,102193.00
2018-12-27T07:43:32.970Z,102199.77
2018-12-27T07:46:01.469Z,102197.52
2018-12-27T07:48:29.922Z,102199.13
2018-12-27T07:50:58.374Z,102197.92
2018-12-27T07:53:26.841Z,102200.03
2018-12-27T07:55:55.290Z,102209.07
2018-12-27T07:58:23.766Z,102202.99
2018-12-27T08:00:52.212Z,102212.03
2018-12-27T08:03:20.682Z,102208.98
2018-12-27T08:05:49.162Z,102205.02
2018-12-27T08:08:17.636Z,102207.95
2018-12-27T08:10:46.096Z,102203.52
2018-12-27T08:13:14.573Z,102207.03
2018-12-27T08:15:43.033Z,102196.15
2018-12-27T08:18:11.505Z,102201.25
2018-12-27T08:20:39.952Z,102208.44
2018-12-27T08:23:08.423Z,102198.90
2018-12-27T08:25:36.876Z,102197.55
2018-12-27T08:28:05.345Z,102196.58
2018-12-27T08:30:33.801Z,102198.09
2018-12-27T08:33:02.276Z,102196.80
2018-12-27T08:35:30.731Z,102196.80
2018-12-27T08:37:59.198Z,102186.48
2018-12-27T08:40:27.647Z,102187.30
2018-12-27T08:42:56.127Z,102173.20
2018-12-27T08:45:24.592Z,102173.67
2018-12-27T08:47:53.059Z,102170.21
2018-12-27T08:50:21.513Z,102163.34
2018-12-27T08:52:49.994Z,102169.48
2018-12-27T08:55:18.437Z,102159.16
2018-12-27T08:57:46.909Z,102152.70
2018-12-27T09:00:15.353Z,102149.71
2018-12-27T09:02:43.881Z,102156.72
2018-12-27T09:05:18.709Z,102152.85
2018-12-27T09:07:42.508Z,102153.36
2018-12-27T09:10:10.979Z,102147.78
2018-12-27T09:12:39.437Z,102153.82
2018-12-27T09:15:08.059Z,102154.64
2018-12-27T09:17:36.584Z,102158.02
2018-12-27T09:20:07.602Z,102158.84
2018-12-27T09:22:36.046Z,102150.53
2018-12-27T09:25:05.103Z,102163.03
2018-12-27T09:27:33.573Z,102154.73
2018-12-27T09:30:02.049Z,102157.30
2018-12-27T09:32:30.500Z,102155.92
2018-12-27T09:34:58.979Z,102160.11
2018-12-27T09:37:27.435Z,102155.87
2018-12-27T09:39:55.908Z,102156.24
2018-12-27T09:42:24.364Z,102163.11
2018-12-27T09:44:52.833Z,102157.38
2018-12-27T09:47:21.289Z,102165.06
2018-12-27T09:49:49.767Z,102161.20
2018-12-27T09:52:18.219Z,102161.57
2018-12-27T09:54:46.696Z,102159.55
2018-12-27T09:57:15.140Z,102160.47
2018-12-27T09:59:43.616Z,102159.23
2018-12-27T10:02:12.062Z,102155.30
2018-12-27T10:04:40.601Z,102149.23
2018-12-27T10:07:09.058Z,102147.56
2018-12-27T10:09:37.529Z,102151.91
2018-12-27T10:12:05.977Z,102140.20
2018-12-27T10:14:34.426Z,102143.28
2018-12-27T10:17:02.903Z,102138.53
2018-12-27T10:19:31.421Z,102136.52
2018-12-27T10:21:59.911Z,102133.02
2018-12-27T10:24:28.355Z,102129.23
2018-12-27T10:26:56.906Z,102127.12
2018-12-27T10:29:25.354Z,102134.08
2018-12-27T10:31:53.835Z,102134.95
2018-12-27T10:34:22.290Z,102131.91
2018-12-27T10:36:50.764Z,102134.08
2018-12-27T10:39:19.213Z,102126.75
2018-12-27T10:41:48.521Z,102128.77
2018-12-27T10:44:18.752Z,102130.79
2018-12-27T10:46:48.192Z,102130.28
2018-12-27T10:49:16.641Z,102124.34
2018-12-27T10:51:45.105Z,102120.38
2018-12-27T10:54:13.553Z,102123.37
2018-12-27T10:56:42.027Z,102126.36
2018-12-27T10:59:10.476Z,102125.45
2018-12-27T11:01:38.955Z,102129.73
2018-12-27T11:04:07.409Z,102122.86
2018-12-27T11:06:35.887Z,102118.20
2018-12-27T11:09:06.079Z,102114.80
2018-12-27T11:11:34.557Z,102120.38
2018-12-27T11:14:03.002Z,102115.13
2018-12-27T11:16:31.474Z,102117.70
2018-12-27T11:18:59.922Z,102112.95
2018-12-27T11:21:28.397Z,102119.91
2018-12-27T11:23:56.843Z,102117.33
2018-12-27T11:26:25.299Z,102109.59
2018-12-27T11:28:53.847Z,102104.89
2018-12-27T11:31:22.301Z,102095.39
2018-12-27T11:33:50.774Z,102100.14
2018-12-27T11:36:19.227Z,102096.69
2018-12-27T11:38:47.703Z,102097.47
2018-12-27T11:41:16.154Z,102093.59
2018-12-27T11:43:44.621Z,102108.30
2018-12-27T11:46:13.067Z,102110.93
2018-12-27T11:48:41.540Z,102105.36
2018-12-27T11:51:09.990Z,102098.03
2018-12-27T11:53:38.468Z,102101.98
2018-12-27T11:56:06.915Z,102105.13
2018-12-27T11:58:35.397Z,102100.44
2018-12-27T12:01:03.849Z,102099.56
2018-12-27T12:03:32.324Z,102104.31
2018-12-27T12:06:03.474Z,102096.56
2018-12-27T12:08:30.978Z,102103.89
2018-12-27T12:10:59.431Z,102103.11
2018-12-27T12:13:27.902Z,102106.25
2018-12-27T12:15:56.354Z,102103.75
2018-12-27T12:18:24.922Z,102095.59
2018-12-27T12:20:53.367Z,102099.16
2018-12-27T12:23:21.838Z,102095.66
2018-12-27T12:25:50.288Z,102098.23
2018-12-27T12:28:18.871Z,102095.19
2018-12-27T12:30:47.317Z,102096.02
2018-12-27T12:33:15.765Z,102098.03
2018-12-27T12:35:44.246Z,102100.61
2018-12-27T12:38:12.857Z,102105.37
2018-12-27T12:40:41.331Z,102098.91
2018-12-27T12:43:09.773Z,102102.70
2018-12-27T12:45:38.242Z,102100.03
2018-12-27T12:48:06.692Z,102098.27
2018-12-27T12:50:35.168Z,102093.11
2018-12-27T12:53:03.622Z,102099.15
2018-12-27T12:55:32.103Z,102095.78
2018-12-27T12:58:00.547Z,102096.66
2018-12-27T13:00:29.019Z,102099.70
2018-12-27T13:02:57.472Z,102100.61
2018-12-27T13:05:25.946Z,102098.91
2018-12-27T13:07:54.400Z,102101.64
2018-12-27T13:10:22.874Z,102096.89
2018-12-27T13:12:51.320Z,102100.67
2018-12-27T13:15:19.796Z,102096.89
2018-12-27T13:17:48.246Z,102102.11
2018-12-27T13:20:16.722Z,102091.00
2018-12-27T13:22:45.181Z,102098.42
2018-12-27T13:25:13.714Z,102097.50
2018-12-27T13:27:42.165Z,102097.03
2018-12-27T13:30:10.711Z,102093.98
2018-12-27T13:32:39.232Z,102089.70
2018-12-27T13:35:07.691Z,102091.88
2018-12-27T13:37:36.344Z,102080.26
2018-12-27T13:40:06.128Z,102089.76
2018-12-27T13:42:34.605Z,102081.23
2018-12-27T13:45:03.053Z,102080.41
2018-12-27T13:47:31.528Z,102075.73
2018-12-27T13:49:59.978Z,102077.03
2018-12-27T13:52:30.577Z,102065.00
2018-12-27T13:54:59.029Z,102068.05
2018-12-27T13:57:27.498Z,102066.34
2018-12-27T13:59:55.950Z,102065.47
2018-12-27T14:02:24.424Z,102065.97
2018-12-27T14:04:52.880Z,102059.98
2018-12-27T14:07:21.351Z,102065.61
2018-12-27T14:09:49.806Z,102065.23
2018-12-27T14:12:18.274Z,102063.95
2018-12-27T14:14:46.730Z,102064.41
2018-12-27T14:17:15.201Z,102059.34
2018-12-27T14:19:43.650Z,102063.27
2018-12-27T14:22:12.129Z,102057.69
2018-12-27T14:24:40.574Z,102058.09
2018-12-27T14:27:09.042Z,102060.77
2018-12-27T14:29:37.492Z,102056.89
2018-12-27T14:32:05.965Z,102060.44
2018-12-27T14:34:34.416Z,102059.16
2018-12-27T14:37:02.886Z,102058.33
2018-12-27T14:39:31.342Z,102051.88
2018-12-27T14:41:59.820Z,102052.38
2018-12-27T14:44:28.275Z,102051.13
2018-12-27T14:46:56.753Z,102055.89
2018-12-27T14:49:25.199Z,102053.30
2018-12-27T14:51:53.647Z,102033.02
2018-12-27T14:54:22.130Z,102048.23
2018-12-27T14:56:50.573Z,102055.23
2018-12-27T14:59:19.050Z,102047.48
2018-12-27T15:01:47.499Z,102047.90
2018-12-27T15:04:15.977Z,102048.78
2018-12-27T15:06:47.918Z,102050.16
2018-12-27T15:09:14.630Z,102044.58
2018-12-27T15:11:43.174Z,102043.28
2018-12-27T15:14:11.648Z,102043.28
2018-12-27T15:16:40.236Z,102041.59
2018-12-27T15:19:08.702Z,102042.46
2018-12-27T15:21:37.232Z,102042.88
2018-12-27T15:24:05.706Z,102038.17
2018-12-27T15:26:34.214Z,102047.72
2018-12-27T15:29:02.689Z,102050.77
2018-12-27T15:31:31.133Z,102054.22
2018-12-27T15:33:59.612Z,102044.39
2018-12-27T15:36:28.065Z,102049.23
2018-12-27T15:38:56.538Z,102057.91
2018-12-27T15:41:24.988Z,102052.75
2018-12-27T15:43:53.467Z,102059.70
2018-12-27T15:46:22.016Z,102049.83
2018-12-27T15:48:50.505Z,102049.51
2018-12-27T15:51:19.039Z,102049.59
2018-12-27T15:53:47.516Z,102038.84
2018-12-27T15:56:15.969Z,102040.69
2018-12-27T15:58:44.452Z,102031.23
2018-12-27T16:01:12.909Z,102030.03
2018-12-27T16:03:41.379Z,102030.08
2018-12-27T16:06:09.827Z,102025.33
2018-12-27T16:08:38.326Z,102030.99
2018-12-27T16:11:06.786Z,102030.58
2018-12-27T16:13:35.234Z,102029.34
2018-12-27T16:16:03.713Z,102027.25
2018-12-27T16:18:32.241Z,102029.01
2018-12-27T16:21:00.710Z,102028.21
2018-12-27T16:23:29.160Z,102028.67
2018-12-27T16:25:57.638Z,102028.67
2018-12-27T16:28:26.087Z,102032.14
2018-12-27T16:30:54.566Z,102029.14
2018-12-27T16:33:23.017Z,102026.97
2018-12-27T16:35:51.491Z,102019.72
2018-12-27T16:38:19.937Z,102026.18
2018-12-27T16:40:48.412Z,102021.06
2018-12-27T16:43:16.869Z,102022.85
2018-12-27T16:45:45.339Z,102018.15
2018-12-27T16:48:13.793Z,102015.98
2018-12-27T16:50:42.267Z,102017.82
2018-12-27T16:53:10.717Z,102013.94
2018-12-27T16:55:39.300Z,102017.73
2018-12-27T16:58:07.752Z,102013.06
2018-12-27T17:00:36.225Z,102020.87
2018-12-27T17:03:04.671Z,102025.23
2018-12-27T17:05:33.164Z,102035.62
2018-12-27T17:08:01.619Z,102028.38
2018-12-27T17:10:30.097Z,102028.83
2018-12-27T17:12:58.549Z,102027.95
2018-12-27T17:15:27.031Z,102030.54
2018-12-27T17:17:55.478Z,102030.54
2018-12-27T17:20:23.926Z,102029.25
2018-12-27T17:22:52.408Z,102027.95
2018-12-27T17:25:20.850Z,102030.54
2018-12-27T17:27:49.366Z,102033.92
2018-12-27T17:30:17.823Z,102033.54
2018-12-27T17:32:46.287Z,102034.33
2018-12-27T17:35:14.778Z,102033.54
2018-12-27T17:37:43.257Z,102037.88
2018-12-27T17:40:11.711Z,102034.00
2018-12-27T17:42:40.178Z,102037.47
2018-12-27T17:45:08.628Z,102042.25
2018-12-27T17:47:37.110Z,102042.30
2018-12-27T17:50:07.003Z,102042.80
2018-12-27T17:52:35.480Z,102037.63
2018-12-27T17:55:04.268Z,102043.27
2018-12-27T17:57:32.748Z,102036.34
2018-12-27T18:00:01.194Z,102033.34
2018-12-27T18:02:29.671Z,102040.22
2018-12-27T18:04:58.125Z,102040.77
2018-12-27T18:07:30.536Z,102037.69
2018-12-27T18:09:56.774Z,102039.85
2018-12-27T18:12:25.248Z,102044.64
2018-12-27T18:14:58.798Z,102044.23
2018-12-27T18:17:27.274Z,102043.81
2018-12-27T18:19:55.729Z,102040.34
2018-12-27T18:22:24.204Z,102041.23
2018-12-27T18:24:52.652Z,102040.77
2018-12-27T18:27:21.191Z,102042.94
2018-12-27T18:29:49.663Z,102042.52
2018-12-27T18:32:18.117Z,102034.35
2018-12-27T18:34:46.601Z,102033.47
2018-12-27T18:37:15.188Z,102037.77
2018-12-27T18:39:43.663Z,102035.18
2018-12-27T18:42:12.117Z,102040.77
2018-12-27T18:44:40.592Z,102044.23
2018-12-27T18:47:09.039Z,102039.47
2018-12-27T18:49:37.509Z,102037.77
2018-12-27T18:52:06.007Z,102026.14
2018-12-27T18:54:34.440Z,102026.05
2018-12-27T18:57:02.890Z,102026.93
2018-12-27T18:59:31.517Z,102030.80
2018-12-27T19:01:59.971Z,102026.55
2018-12-27T19:04:28.451Z,102030.80
2018-12-27T19:06:56.937Z,102029.13
2018-12-27T19:09:25.410Z,102032.52
2018-12-27T19:12:30.484Z,102035.97
2018-12-27T19:15:01.001Z,102035.59
2018-12-27T19:17:32.024Z,102039.85
2018-12-27T19:20:00.471Z,102039.47
2018-12-27T19:22:31.586Z,102041.14
2018-12-27T19:25:00.050Z,102039.47
2018-12-27T19:27:28.611Z,102036.89
2018-12-27T19:29:57.058Z,102041.56
2018-12-27T19:32:25.536Z,102046.31
2018-12-27T19:34:53.982Z,102044.14
2018-12-27T19:37:22.461Z,102043.73
2018-12-27T19:39:50.915Z,102048.89
2018-12-27T19:42:19.413Z,102051.48
2018-12-27T19:44:47.870Z,102048.10
2018-12-27T19:47:16.350Z,102048.89
2018-12-27T19:49:44.799Z,102053.27
2018-12-27T19:52:13.252Z,102056.31
2018-12-27T19:54:41.731Z,102051.65
2018-12-27T19:57:10.185Z,102052.11
2018-12-27T19:59:38.662Z,102050.08
2018-12-27T20:02:07.135Z,102053.53
2018-12-27T20:04:35.609Z,102054.83
2018-12-27T20:07:04.060Z,102055.33
2018-12-27T20:09:32.540Z,102051.91
2018-12-27T20:12:00.982Z,102048.91
2018-12-27T20:14:29.463Z,102047.29
2018-12-27T20:16:57.916Z,102043.00
2018-12-27T20:19:26.401Z,102042.59
2018-12-27T20:21:54.858Z,102042.20
2018-12-27T20:24:23.335Z,102049.55
2018-12-27T20:26:51.784Z,102048.72
2018-12-27T20:29:20.268Z,102049.21
2018-12-27T20:31:48.722Z,102049.21
2018-12-27T20:34:17.197Z,102049.34
2018-12-27T20:36:45.652Z,102048.93
2018-12-27T20:39:14.128Z,102042.05
2018-12-27T20:41:42.583Z,102039.13
2018-12-27T20:44:11.214Z,102040.84
2018-12-27T20:46:39.667Z,102030.50
2018-12-27T20:49:08.152Z,102033.97
2018-12-27T20:51:36.605Z,102030.50
2018-12-27T20:54:05.084Z,102030.04
2018-12-27T20:56:33.530Z,102021.87
2018-12-27T20:59:02.007Z,102017.11
2018-12-27T21:01:30.458Z,102019.70
2018-12-27T21:03:58.942Z,102021.45
2018-12-27T21:06:27.509Z,102021.78
2018-12-27T21:08:55.989Z,102011.03
2018-12-27T21:11:24.437Z,102012.33
2018-12-27T21:13:52.920Z,102008.53
2018-12-27T21:16:21.365Z,102006.02
2018-12-27T21:18:49.844Z,101999.56
2018-12-27T21:21:18.297Z,101992.19
2018-12-27T21:23:46.777Z,101987.10
2018-12-27T21:26:15.235Z,101986.69
2018-12-27T21:28:43.708Z,101979.80
2018-12-27T21:31:12.167Z,101984.09
2018-12-27T21:33:40.645Z,101989.77
2018-12-27T21:36:09.093Z,101988.05
2018-12-27T21:38:37.570Z,101994.56
2018-12-27T21:41:06.022Z,101999.41
2018-12-27T21:43:34.500Z,101996.81
2018-12-27T21:46:02.959Z,101997.70
2018-12-27T21:48:31.414Z,101990.44
2018-12-27T21:50:59.896Z,101989.55
2018-12-27T21:53:28.348Z,101985.59
2018-12-27T21:55:56.823Z,101979.97
2018-12-27T21:58:25.277Z,101979.88
2018-12-27T22:00:53.759Z,101976.88
2018-12-27T22:03:22.203Z,101972.96
2018-12-27T22:05:50.683Z,101973.34
2018-12-27T22:08:19.137Z,101974.63
2018-12-27T22:10:47.621Z,101983.68
2018-12-27T22:13:16.072Z,101988.47
2018-12-27T22:15:44.552Z,101988.94
2018-12-27T22:18:13.006Z,101985.05
2018-12-27T22:20:41.477Z,101992.48
2018-12-27T22:23:09.928Z,101995.53
2018-12-27T22:25:38.410Z,101995.53
2018-12-27T22:28:06.860Z,101991.65
2018-12-27T22:30:35.406Z,101994.31
2018-12-27T22:33:03.865Z,101996.02
2018-12-27T22:35:32.344Z,101992.06
2018-12-27T22:38:00.792Z,101993.35
2018-12-27T22:40:29.295Z,101988.64
2018-12-27T22:42:57.751Z,101994.23
2018-12-27T22:45:26.225Z,101992.94
2018-12-27T22:47:54.677Z,101994.65
2018-12-27T22:50:23.149Z,102001.19
2018-12-27T22:52:51.599Z,102000.77
2018-12-27T22:55:20.080Z,102001.66
2018-12-27T22:57:48.532Z,102000.77
2018-12-27T23:00:19.407Z,102002.07
2018-12-27T23:02:47.860Z,101999.90
2018-12-27T23:05:16.333Z,102010.63
2018-12-27T23:07:44.785Z,102012.83
2018-12-27T23:10:13.269Z,102006.74
2018-12-27T23:12:41.720Z,102001.58
2018-12-27T23:15:10.261Z,102005.87
2018-12-27T23:17:38.710Z,102008.41
2018-12-27T23:20:07.182Z,102016.49
2018-12-27T23:22:35.641Z,102006.56
2018-12-27T23:25:04.192Z,102006.16
2018-12-27T23:27:32.644Z,102006.16
2018-12-27T23:30:01.125Z,102005.27
2018-12-27T23:32:29.574Z,102007.37
2018-12-27T23:34:58.024Z,102008.66
2018-12-27T23:37:26.506Z,102010.03
2018-12-27T23:39:54.996Z,102006.95
2018-12-27T23:42:23.479Z,102017.38
2018-12-27T23:44:51.932Z,102017.30
2018-12-27T23:47:20.414Z,102015.45
2018-12-27T23:49:48.864Z,102015.08
2018-12-27T23:52:17.339Z,102021.45
2018-12-27T23:54:45.795Z,102018.87
2018-12-27T23:57:14.275Z,102021.87
2018-12-27T23:59:42.718Z,102018.79
